Latest Weather Observations for Dunalley

IDT60901

Issued at 11:21 pm EST Sunday 29 May 2016 (issued every 10 minutes, with the page automatically refreshed every 10 minutes)

About weather observations | Map of Hobart area stations | Latest observations for Hobart area | Other Formats
Station Details ID: 094254 Name: DUNALLEY (STROUD POINT) Lat: -42.90 Lon: 147.79 Height: 12.43 m
Data from the previous 72 hours. | See also: Recent months at Dunalley
Date/Time
EST
Tmp

°C
App
Tmp
°C
Dew
Point
°C
Rel
Hum
%
Delta-T

°C
Wind Press
QNH
hPa
Press
MSL
hPa
Rain
since
9 am
mm
Dir
 
Spd
km/h
Gust
km/h
Spd
kts
Gust
kts
29/11:00pm 10.2 6.6 8.3 88 0.9 SW 17 20 9 11 1022.0 1022.1 3.2
29/10:30pm 10.1 6.1 8.9 92 0.6 WSW 20 26 11 14 1021.7 1021.8 3.2
29/10:00pm 10.0 5.9 8.6 91 0.7 WSW 20 24 11 13 1021.5 1021.6 3.2
29/09:30pm 10.1 6.3 9.0 93 0.5 SW 19 22 10 12 1021.5 1021.6 3.2
29/09:00pm 9.9 6.0 8.7 92 0.6 WSW 19 20 10 11 1021.1 1021.2 2.8
29/08:30pm 9.4 7.2 8.0 91 0.7 SSW 9 15 5 8 1020.9 1021.0 2.8
29/08:00pm 9.8 7.7 8.2 90 0.8 S 9 11 5 6 1020.5 1020.6 2.8
29/07:30pm 10.1 6.1 8.4 89 0.8 SSW 19 20 10 11 1020.3 1020.4 2.8
29/07:00pm 10.4 6.9 8.7 89 0.8 SW 17 20 9 11 1019.9 1019.9 2.8
29/06:30pm 9.9 5.7 8.3 90 0.8 SW 20 26 11 14 1019.3 1019.3 2.8
29/06:00pm 10.4 6.4 9.0 91 0.7 SW 20 24 11 13 1018.9 1018.9 2.8
29/05:30pm 10.5 6.2 9.3 92 0.6 WSW 22 24 12 13 1018.5 1018.5 2.8
29/05:00pm 10.4 6.4 9.0 91 0.7 WSW 20 24 11 13 1018.0 1018.0 2.8
29/04:30pm 10.5 5.8 9.1 91 0.7 WSW 24 26 13 14 1017.6 1017.6 2.6
29/04:00pm 10.5 6.5 8.9 90 0.8 WSW 20 24 11 13 1017.4 1017.4 2.4
29/03:30pm 10.7 6.7 9.1 90 0.8 WSW 20 24 11 13 1017.1 1017.1 2.2
29/03:00pm 10.9 7.9 9.3 90 0.8 SW 15 19 8 10 1016.8 1016.8 2.2
29/02:30pm 10.3 6.2 8.6 89 0.8 SW 20 24 11 13 1016.5 1016.5 2.0
29/02:00pm 11.1 5.6 9.2 88 0.9 WSW 28 33 15 18 1016.0 1016.0 1.6
29/01:30pm 11.3 5.5 9.4 88 1.0 WSW 30 35 16 19 1015.8 1015.8 1.4
29/01:00pm 11.5 7.4 8.7 83 1.4 WSW 20 28 11 15 1015.5 1015.5 1.4
29/12:30pm 11.3 7.1 9.7 90 0.8 W 22 28 12 15 1015.3 1015.3 1.4
29/12:00pm 11.0 7.0 8.9 87 1.0 W 20 33 11 18 1015.3 1015.3 1.4
29/11:30am 11.0 7.1 9.6 91 0.7 W 20 24 11 13 1015.4 1015.4 1.4
29/11:00am 10.6 6.7 9.5 93 0.6 W 20 24 11 13 1015.4 1015.4 1.4
29/10:30am 9.8 7.0 8.7 93 0.5 W 13 17 7 9 1015.3 1015.3 1.0
29/10:00am 10.3 5.9 9.1 92 0.6 WSW 22 24 12 13 1015.1 1015.1 0.4
29/09:30am 10.2 5.8 9.1 93 0.5 WSW 22 26 12 14 1014.6 1014.6 0.2
29/09:00am 9.9 4.4 9.0 94 0.4 WSW 28 32 15 17 1014.3 1014.3 7.8
29/08:30am 10.0 6.9 8.9 93 0.5 WSW 15 24 8 13 1013.9 1013.9 6.4
29/08:00am 9.9 6.8 8.7 92 0.6 WSW 15 19 8 10 1013.6 1013.6 4.8
29/07:30am 9.9 6.3 8.5 91 0.7 WSW 17 19 9 10 1013.1 1013.1 4.0
29/07:00am 10.2 6.4 9.0 92 0.6 SW 19 20 10 11 1012.7 1012.7 3.0
29/06:30am 9.8 5.6 8.4 91 0.7 WSW 20 26 11 14 1012.3 1012.3 2.2
29/06:00am 9.7 4.0 8.3 91 0.7 WSW 28 32 15 17 1011.9 1011.9 2.0
29/05:30am 9.7 3.5 7.8 88 0.9 W 30 35 16 19 1011.4 1011.4 2.0
29/05:00am 9.7 3.5 7.8 88 0.9 W 30 33 16 18 1011.0 1011.0 1.8
29/04:30am 9.5 2.8 7.4 87 1.0 W 32 37 17 20 1010.8 1010.8 1.8
29/04:00am 10.0 3.2 7.8 86 1.1 WSW 33 41 18 22 1010.7 1010.7 1.8
29/03:30am 9.9 3.3 7.8 87 1.0 W 32 35 17 19 1010.6 1010.6 1.8
29/03:00am 9.6 4.0 7.2 85 1.1 W 26 30 14 16 1010.6 1010.6 1.2
29/02:30am 9.6 3.3 7.4 86 1.0 WSW 30 33 16 18 1010.3 1010.3 1.0
29/02:00am 9.6 3.6 7.0 84 1.2 W 28 35 15 19 1010.3 1010.3 1.0
29/01:30am 9.6 3.7 7.4 86 1.0 W 28 33 15 18 1010.1 1010.1 1.0
29/01:00am 9.2 3.3 7.6 90 0.8 W 28 33 15 18 1010.0 1010.0 1.0
29/12:30am 9.5 3.5 7.1 85 1.1 W 28 35 15 19 1009.9 1009.9 0.0
29/12:00am 9.8 4.6 7.2 84 1.2 W 24 37 13 20 1009.9 1009.9 0.0
 
Date/Time
EST
Tmp

°C
App
Tmp
°C
Dew
Point
°C
Rel
Hum
%
Delta-T

°C
Wind Press
QNH
hPa
Press
MSL
hPa
Rain
since
9 am
mm
Dir
 
Spd
km/h
Gust
km/h
Spd
kts
Gust
kts
28/11:30pm 9.1 4.5 5.7 79 1.5 W 19 24 10 13 1010.0 1010.0 0.0
28/11:00pm 9.3 4.6 5.9 79 1.6 W 20 26 11 14 1009.8 1009.8 0.0
28/10:30pm 9.0 4.7 5.2 77 1.7 WNW 17 22 9 12 1009.8 1009.8 0.0
28/10:00pm 8.5 4.9 5.1 79 1.5 W 13 17 7 9 1009.7 1009.7 0.0
28/09:30pm 8.6 4.7 5.4 80 1.4 W 15 17 8 9 1009.7 1009.7 0.0
28/09:00pm 9.0 6.0 6.1 82 1.3 W 11 15 6 8 1009.7 1009.7 0.0
28/08:30pm 8.3 5.6 5.4 82 1.3 W 9 13 5 7 1009.4 1009.4 0.0
28/08:00pm 8.4 5.2 5.3 81 1.4 W 11 13 6 7 1009.2 1009.2 0.0
28/07:30pm 8.1 5.2 4.9 80 1.4 WSW 9 13 5 7 1009.2 1009.2 0.0
28/07:00pm 8.7 5.4 4.7 76 1.8 WSW 11 13 6 7 1009.0 1009.0 0.0
28/06:30pm 8.4 5.5 4.8 78 1.6 WSW 9 11 5 6 1008.6 1008.6 0.0
28/06:00pm 8.6 6.1 5.0 78 1.6 WSW 7 9 4 5 1008.4 1008.4 0.0
28/05:30pm 8.8 6.5 5.7 81 1.4 WSW 7 13 4 7 1008.2 1008.2 0.0
28/05:00pm 8.8 6.4 5.4 79 1.5 W 7 9 4 5 1007.8 1007.8 0.0
28/04:30pm 10.0 7.7 5.0 71 2.3 W 6 9 3 5 1007.5 1007.5 0.0
28/04:00pm 11.4 9.2 5.5 67 2.7 W 6 7 3 4 1007.3 1007.3 0.0
28/03:30pm 11.8 9.1 5.4 65 3.0 W 9 11 5 6 1007.2 1007.2 0.0
28/03:00pm 12.1 9.3 5.3 63 3.2 W 9 9 5 5 1007.0 1007.0 0.0
28/02:30pm 12.0 9.1 4.7 61 3.3 W 9 13 5 7 1006.8 1006.8 0.0
28/02:00pm 12.1 8.4 4.6 60 3.4 W 13 15 7 8 1006.6 1006.6 0.0
28/01:30pm 12.1 7.4 5.0 62 3.3 W 19 22 10 12 1006.5 1006.5 0.0
28/01:00pm 11.8 6.8 4.8 62 3.2 W 20 24 11 13 1006.6 1006.6 0.0
28/12:30pm 11.7 6.7 4.7 62 3.2 W 20 28 11 15 1006.8 1006.8 0.0
28/12:00pm 11.5 6.7 4.7 63 3.1 WNW 19 24 10 13 1007.0 1007.0 0.0
28/11:30am 11.6 7.2 4.8 63 3.1 WNW 17 20 9 11 1007.3 1007.3 0.0
28/11:00am 11.1 7.1 5.0 66 2.8 WNW 15 22 8 12 1007.5 1007.5 0.0
28/10:30am 10.4 6.0 4.5 67 2.6 WNW 17 20 9 11 1007.6 1007.6 0.0
28/10:00am 9.9 5.0 4.3 68 2.5 NW 19 22 10 12 1007.5 1007.5 0.0
28/09:30am 9.4 4.9 4.0 69 2.4 NW 17 24 9 13 1007.5 1007.5 0.0
28/09:00am 8.8 4.1 3.4 69 2.3 NW 17 24 9 13 1007.5 1007.5 0.8
28/08:30am 8.0 3.3 3.3 72 2.0 NW 17 22 9 12 1007.6 1007.6 0.8
28/08:00am 7.4 3.1 3.1 74 1.8 NW 15 20 8 11 1007.7 1007.7 0.8
28/07:30am 7.0 2.3 2.9 75 1.7 NNW 17 20 9 11 1007.4 1007.4 0.8
28/07:00am 7.1 3.1 3.0 75 1.7 NW 13 19 7 10 1007.3 1007.3 0.8
28/06:30am 7.3 2.6 3.0 74 1.8 NW 17 24 9 13 1007.3 1007.3 0.8
28/06:00am 7.3 3.0 3.0 74 1.8 NW 15 20 8 11 1007.1 1007.1 0.8
28/05:30am 7.2 3.2 2.9 74 1.8 NW 13 20 7 11 1007.0 1007.0 0.8
28/05:00am 7.1 2.8 3.0 75 1.7 NW 15 20 8 11 1007.0 1007.0 0.8
28/04:30am 7.3 3.0 3.2 75 1.7 NW 15 20 8 11 1006.9 1006.9 0.8
28/04:00am 7.5 3.2 3.2 74 1.8 NW 15 20 8 11 1006.8 1006.8 0.8
28/03:30am 7.6 3.3 3.3 74 1.8 NW 15 19 8 10 1006.8 1006.8 0.8
28/03:00am 7.8 3.2 3.5 74 1.8 NW 17 20 9 11 1006.9 1006.9 0.8
28/02:30am 7.8 4.0 3.8 76 1.7 WNW 13 19 7 10 1006.9 1006.9 0.8
28/02:00am 8.1 5.1 4.1 76 1.7 WNW 9 15 5 8 1007.0 1007.0 0.8
28/01:30am 8.2 4.8 4.0 75 1.8 WNW 11 17 6 9 1007.0 1007.0 0.8
28/01:00am 8.3 4.2 4.3 76 1.8 WNW 15 17 8 9 1007.0 1007.0 0.8
28/12:30am 8.9 5.2 4.5 74 1.9 WNW 13 17 7 9 1006.9 1006.9 0.8
28/12:00am 10.1 4.4 5.1 71 2.3 W 24 28 13 15 1007.0 1007.0 0.8
 
Date/Time
EST
Tmp

°C
App
Tmp
°C
Dew
Point
°C
Rel
Hum
%
Delta-T

°C
Wind Press
QNH
hPa
Press
MSL
hPa
Rain
since
9 am
mm
Dir
 
Spd
km/h
Gust
km/h
Spd
kts
Gust
kts
27/11:30pm 10.3 4.7 5.3 71 2.3 WSW 24 28 13 15 1007.1 1007.1 0.8
27/11:00pm 10.2 5.1 6.0 75 1.9 W 22 26 12 14 1007.1 1007.1 0.8
27/10:30pm 10.3 5.6 5.9 74 2.0 WSW 20 24 11 13 1007.2 1007.2 0.8
27/10:00pm 10.4 5.8 6.4 76 1.9 WSW 20 24 11 13 1007.3 1007.3 0.8
27/09:30pm 10.7 5.6 6.1 73 2.1 SW 22 24 12 13 1007.3 1007.3 0.8
27/09:00pm 10.8 6.2 6.4 74 2.1 SW 20 24 11 13 1007.2 1007.2 0.8
27/08:30pm 10.8 5.2 5.6 70 2.4 WSW 24 28 13 15 1007.0 1007.0 0.8
27/08:00pm 10.8 6.8 6.6 75 2.0 WSW 17 19 9 10 1007.0 1007.0 0.8
27/07:30pm 10.8 6.7 6.2 73 2.1 SW 17 20 9 11 1006.9 1006.9 0.8
27/07:00pm 11.0 6.3 6.2 72 2.3 SW 20 24 11 13 1006.6 1006.6 0.8
27/06:30pm 11.0 6.4 6.6 74 2.1 SW 20 24 11 13 1006.4 1006.4 0.8
27/06:00pm 10.9 5.9 6.5 74 2.1 SW 22 26 12 14 1006.2 1006.2 0.8
27/05:30pm 10.9 6.4 7.0 77 1.9 SW 20 22 11 12 1005.9 1005.9 0.8
27/05:00pm 10.9 6.5 7.2 78 1.8 SW 20 22 11 12 1005.6 1005.6 0.8
27/04:30pm 10.9 6.5 7.4 79 1.7 SW 20 26 11 14 1005.4 1005.4 0.8
27/04:00pm 11.0 5.4 7.1 77 1.9 SW 26 32 14 17 1005.0 1005.0 0.8
27/03:30pm 11.3 6.5 7.2 76 2.0 SW 22 26 12 14 1004.7 1004.7 0.8
27/03:00pm 11.0 6.8 7.5 79 1.7 SW 19 24 10 13 1004.4 1004.4 0.8
27/02:30pm 10.9 5.7 8.7 86 1.1 WSW 26 30 14 16 1004.2 1004.2 0.8
27/02:00pm 10.9 5.6 8.5 85 1.2 WSW 26 32 14 17 1004.1 1004.1 0.8
27/01:30pm 11.0 6.1 8.4 84 1.3 SW 24 30 13 16 1004.1 1004.1 0.8
27/01:00pm 10.8 6.3 8.7 87 1.0 WSW 22 26 12 14 1004.2 1004.2 0.6
27/12:30pm 10.7 5.4 8.6 87 1.0 WSW 26 33 14 18 1004.0 1004.0 0.4
27/12:00pm 10.9 6.9 8.3 84 1.3 SSW 19 20 10 11 1004.2 1004.2 0.4
27/11:30am 10.7 6.7 8.3 85 1.2 SW 19 26 10 14 1004.3 1004.3 0.2
27/11:00am 10.7 6.7 9.0 89 0.8 SW 20 24 11 13 1004.5 1004.5 0.0
27/10:30am 10.7 6.3 8.8 88 0.9 WSW 22 26 12 14 1004.3 1004.3 0.0
27/10:00am 10.4 5.9 8.7 89 0.8 WSW 22 24 12 13 1004.3 1004.3 0.0
27/09:30am 10.3 6.4 8.7 90 0.8 SSW 19 20 10 11 1004.1 1004.1 0.0
27/09:00am 10.0 7.1 8.3 89 0.8 S 13 17 7 9 1004.0 1004.0 9.4
27/08:30am 9.9 6.7 8.3 90 0.8 S 15 19 8 10 1003.9 1003.9 9.2
27/08:00am 9.6 7.1 8.0 90 0.8 S 11 13 6 7 1003.7 1003.7 9.2
27/07:30am 9.4 8.9 7.8 90 0.8 CALM 0 0 0 0 1003.6 1003.6 9.0
27/07:00am 9.6 7.7 7.7 88 0.9 S 7 9 4 5 1003.4 1003.4 9.0
27/06:30am 9.5 6.9 7.8 89 0.8 S 11 15 6 8 1003.1 1003.1 8.8
27/06:00am 9.7 7.5 8.0 89 0.8 S 9 11 5 6 1003.1 1003.1 8.4
27/05:30am 9.8 7.3 8.1 89 0.8 S 11 13 6 7 1003.1 1003.1 8.0
27/05:00am 9.7 6.8 8.1 90 0.8 S 13 15 7 8 1002.9 1002.9 7.8
27/04:30am 9.7 6.8 8.1 90 0.8 S 13 17 7 9 1002.8 1002.8 7.6
27/04:00am 9.1 6.5 7.9 92 0.6 SSE 11 17 6 9 1002.8 1002.8 7.4
27/03:30am 8.6 6.7 7.4 92 0.6 SSE 7 9 4 5 1002.7 1002.7 7.2
27/03:00am 8.6 6.6 7.1 90 0.7 SSE 7 9 4 5 1002.7 1002.7 6.4
27/02:30am 8.3 6.8 6.9 91 0.7 SSE 4 4 2 2 1002.8 1002.8 6.4
27/02:00am 8.3 6.8 6.8 90 0.7 SSE 4 6 2 3 1002.8 1002.8 5.4
27/01:30am 8.5 6.9 6.5 87 0.9 SSE 4 7 2 4 1002.6 1002.6 4.8
27/01:00am 8.3 6.4 6.6 89 0.8 SSE 6 7 3 4 1002.5 1002.5 4.2
27/12:30am 8.3 6.4 6.8 90 0.7 SSE 6 6 3 3 1002.6 1002.6 3.8
27/12:00am 8.8 8.1 6.8 87 0.9 CALM 0 6 0 3 1002.8 1002.8 2.8
 
Date/Time
EST
Tmp

°C
App
Tmp
°C
Dew
Point
°C
Rel
Hum
%
Delta-T

°C
Wind Press
QNH
hPa
Press
MSL
hPa
Rain
since
9 am
mm
Dir
 
Spd
km/h
Gust
km/h
Spd
kts
Gust
kts
26/11:30pm 9.2 7.2 6.1 81 1.4 SSE 6 9 3 5 1002.8 1002.8 1.2

Latest Capital City Observations: Canberra | Sydney | Melbourne | Brisbane | Adelaide | Perth | Hobart | Darwin

Other Formats:

Comma delimited format used in spreadsheet applications
http://www.bom.gov.au/fwo/IDT60901/IDT60901.94951.axf

JavaScript Object Notation format (JSON) in row-major order
http://www.bom.gov.au/fwo/IDT60901/IDT60901.94951.json